Time;durP1;ratioP1;P1;durP2;ratioP2;P2;SDS_P1;SDS_P2;PMS_P1;PMS_P2;Temp;Humidity;BMP_temperature;BMP_pressure;BME280_temperature;BME280_humidity;BME280_pressure;Samples;Min_cycle;Max_cycle;Signal;HPM_P1;HPM_P2
2023/11/15 00:04:36;;;;;;;;;;;;;;;17.22;52.37;98735.38;10327135;28;814;-71
2023/11/15 00:09:33;;;;;;;;;;;;;;;17.19;52.48;98751.34;10327709;28;1894;-71
2023/11/15 00:14:28;;;;;;;;;;;;;;;17.19;52.33;98758.41;10327402;28;759;-71
2023/11/15 00:19:30;;;;;;;;;;;;;;;17.16;52.58;98772.59;10327107;28;782;-72
2023/11/15 00:24:26;;;;;;;;;;;;;;;17.15;52.57;98775.31;10327237;28;782;-71
2023/11/15 00:29:22;;;;;;;;;;;;;;;17.13;52.32;98785.91;10326709;28;1964;-71
2023/11/15 00:34:17;;;;;;;;;;;;;;;17.10;52.60;98791.34;10326601;28;866;-71
2023/11/15 00:39:13;;;;;;;;;;;;;;;17.06;52.67;98795.94;10327080;28;830;-71
2023/11/15 00:44:09;;;;;;;;;;;;;;;17.05;52.63;98806.56;10326295;28;892;-72
2023/11/15 00:49:05;;;;;;;;;;;;;;;17.05;52.57;98819.72;10325692;28;1909;-71
2023/11/15 00:54:01;;;;;;;;;;;;;;;17.02;52.72;98836.53;10325420;28;889;-71
2023/11/15 00:58:57;;;;;;;;;;;;;;;17.01;52.66;98829.59;10325274;28;866;-71
2023/11/15 01:03:56;;;;;;;;;;;;;;;16.98;52.74;98848.19;10326569;28;845;-71
2023/11/15 01:08:52;;;;;;;;;;;;;;;16.98;52.67;98857.88;10325539;28;1968;-72
2023/11/15 01:13:48;;;;;;;;;;;;;;;16.97;52.58;98856.16;10325393;28;878;-71
2023/11/15 01:18:43;;;;;;;;;;;;;;;16.96;52.92;98863.19;10325719;28;838;-72
2023/11/15 01:23:39;;;;;;;;;;;;;;;16.95;52.72;98879.06;10325368;28;870;-71
2023/11/15 01:28:35;;;;;;;;;;;;;;;16.93;52.86;98889.69;10325105;28;1959;-71
2023/11/15 01:33:31;;;;;;;;;;;;;;;16.93;52.70;98894.13;10325406;28;825;-71
2023/11/15 01:38:29;;;;;;;;;;;;;;;16.90;52.66;98903.03;10325716;28;771;-71
2023/11/15 01:43:25;;;;;;;;;;;;;;;16.90;52.81;98910.91;10324960;28;853;-71
2023/11/15 01:48:21;;;;;;;;;;;;;;;16.88;52.98;98907.50;10325620;28;1999;-71
2023/11/15 01:53:17;;;;;;;;;;;;;;;16.84;52.80;98904.19;10325376;28;809;-71
2023/11/15 01:58:14;;;;;;;;;;;;;;;16.82;52.81;98913.06;10324234;28;929;-71
2023/11/15 02:03:11;;;;;;;;;;;;;;;16.84;52.77;98924.38;10324591;28;834;-71
2023/11/15 02:08:07;;;;;;;;;;;;;;;16.81;52.92;98933.28;10325112;28;1963;-71
2023/11/15 02:13:03;;;;;;;;;;;;;;;16.80;52.94;98939.50;10323809;28;925;-71
2023/11/15 02:17:58;;;;;;;;;;;;;;;16.79;52.94;98948.34;10324340;28;936;-71
2023/11/15 02:22:54;;;;;;;;;;;;;;;16.78;52.99;98948.41;10324794;28;819;-71
2023/11/15 02:27:50;;;;;;;;;;;;;;;16.79;52.98;98971.16;10328898;28;1981;-71
2023/11/15 02:32:47;;;;;;;;;;;;;;;16.78;52.99;98970.31;10330747;28;1227;-71
2023/11/15 02:37:44;;;;;;;;;;;;;;;16.77;53.06;98973.00;10331119;28;818;-71
2023/11/15 02:42:40;;;;;;;;;;;;;;;16.75;53.17;98972.22;10330393;28;949;-71
2023/11/15 02:47:35;;;;;;;;;;;;;;;16.74;53.01;98967.88;10330711;28;1921;-72
2023/11/15 02:52:33;;;;;;;;;;;;;;;16.72;52.94;98975.00;10331225;28;893;-71
2023/11/15 02:57:28;;;;;;;;;;;;;;;16.72;53.17;98972.38;10330462;28;837;-71
2023/11/15 03:02:24;;;;;;;;;;;;;;;16.70;52.91;99004.03;10330888;28;887;-71
2023/11/15 03:07:20;;;;;;;;;;;;;;;16.69;53.15;98973.38;10330973;28;917;-71
2023/11/15 03:12:16;;;;;;;;;;;;;;;16.69;53.02;98986.53;10330116;28;1969;-71
2023/11/15 03:17:12;;;;;;;;;;;;;;;16.68;53.24;98978.72;10329694;28;885;-71
2023/11/15 03:22:08;;;;;;;;;;;;;;;16.65;53.01;98977.94;10329005;28;1062;-71
2023/11/15 03:27:04;;;;;;;;;;;;;;;16.63;53.36;98986.84;10329414;28;778;-71
2023/11/15 03:32:00;;;;;;;;;;;;;;;16.64;53.17;98997.28;10329215;28;1949;-71
2023/11/15 03:36:56;;;;;;;;;;;;;;;16.62;53.11;99009.66;10327884;28;897;-71
2023/11/15 03:41:51;;;;;;;;;;;;;;;16.63;53.08;99028.94;10329552;28;916;-71
2023/11/15 03:46:47;;;;;;;;;;;;;;;16.61;53.24;99042.19;10329321;28;830;-71
2023/11/15 03:51:43;;;;;;;;;;;;;;;16.60;53.22;99055.41;10328168;28;1992;-71
2023/11/15 03:56:39;;;;;;;;;;;;;;;16.55;53.23;99049.50;10327536;28;797;-71
2023/11/15 04:01:36;;;;;;;;;;;;;;;16.56;53.27;99038.94;10328726;28;830;-71
2023/11/15 04:06:31;;;;;;;;;;;;;;;16.55;53.37;99053.00;10328054;28;934;-71
2023/11/15 04:11:27;;;;;;;;;;;;;;;16.55;53.37;99084.56;10328097;28;1953;-71
2023/11/15 04:16:23;;;;;;;;;;;;;;;16.55;53.34;99096.88;10327356;28;925;-71
2023/11/15 04:21:19;;;;;;;;;;;;;;;16.51;53.44;99098.81;10327189;28;930;-71
2023/11/15 04:26:15;;;;;;;;;;;;;;;16.52;53.38;99104.91;10326988;28;825;-71
2023/11/15 04:31:11;;;;;;;;;;;;;;;16.52;53.21;99097.03;10327420;28;1955;-71
2023/11/15 04:36:07;;;;;;;;;;;;;;;16.50;53.24;99104.13;10327216;28;810;-72
2023/11/15 04:41:04;;;;;;;;;;;;;;;16.49;53.50;99105.06;10326410;28;779;-71
2023/11/15 04:46:00;;;;;;;;;;;;;;;16.50;53.24;99112.03;10325637;28;901;-71
2023/11/15 04:50:57;;;;;;;;;;;;;;;16.62;52.93;99106.16;10325614;28;1973;-71
2023/11/15 04:55:53;;;;;;;;;;;;;;;16.68;52.82;99115.53;10326384;28;925;-71
2023/11/15 05:00:49;;;;;;;;;;;;;;;16.71;52.72;99110.13;10325891;28;770;-71
2023/11/15 05:05:45;;;;;;;;;;;;;;;16.77;52.62;99126.50;10325767;28;867;-71
2023/11/15 05:10:41;;;;;;;;;;;;;;;16.84;52.50;99125.25;10325635;28;1898;-71
2023/11/15 05:15:37;;;;;;;;;;;;;;;16.94;52.26;99132.72;10325596;28;774;-71
2023/11/15 05:20:32;;;;;;;;;;;;;;;17.03;52.09;99137.53;10325897;28;900;-71
2023/11/15 05:25:28;;;;;;;;;;;;;;;17.08;51.97;99141.66;10325377;28;828;-71
2023/11/15 05:30:24;;;;;;;;;;;;;;;17.16;51.82;99133.38;10325184;28;1886;-71
2023/11/15 05:35:20;;;;;;;;;;;;;;;17.18;51.68;99144.66;10324597;28;829;-71
2023/11/15 05:40:16;;;;;;;;;;;;;;;17.23;51.81;99147.91;10325044;28;810;-72
2023/11/15 05:45:12;;;;;;;;;;;;;;;17.28;51.69;99152.94;10325687;28;790;-71
2023/11/15 05:50:11;;;;;;;;;;;;;;;17.33;51.66;99165.91;10324742;28;1968;-71
2023/11/15 05:55:07;;;;;;;;;;;;;;;17.35;51.57;99169.31;10325344;28;787;-71
2023/11/15 06:00:14;;;;;;;;;;;;;;;17.39;51.57;99162.94;10325160;28;890;-72
2023/11/15 06:05:10;;;;;;;;;;;;;;;17.38;51.61;99170.00;10332517;28;990;-71
2023/11/15 06:10:08;;;;;;;;;;;;;;;17.40;51.73;99177.84;10332845;28;1897;-69
2023/11/15 06:15:04;;;;;;;;;;;;;;;17.45;51.70;99181.09;10332639;28;842;-75
2023/11/15 06:19:59;;;;;;;;;;;;;;;17.46;51.73;99183.63;10332477;28;834;-72
2023/11/15 06:24:55;;;;;;;;;;;;;;;17.47;51.78;99197.66;10332012;28;815;-71
2023/11/15 06:29:52;;;;;;;;;;;;;;;17.49;51.68;99190.53;10331585;28;1955;-71
2023/11/15 06:34:49;;;;;;;;;;;;;;;17.37;52.27;99191.13;10331157;28;893;-70
2023/11/15 06:39:45;;;;;;;;;;;;;;;17.21;52.46;99194.56;10331156;28;885;-70
2023/11/15 06:44:41;;;;;;;;;;;;;;;17.14;52.48;99203.69;10331712;28;887;-71
2023/11/15 06:49:37;;;;;;;;;;;;;;;17.14;52.44;99214.22;10332199;28;1906;-71
2023/11/15 06:54:33;;;;;;;;;;;;;;;17.30;51.91;99217.78;10331268;28;799;-71
2023/11/15 06:59:29;;;;;;;;;;;;;;;17.39;51.56;99213.84;10330517;28;755;-71
2023/11/15 07:04:25;;;;;;;;;;;;;;;17.42;51.61;99220.75;10331110;28;865;-71
2023/11/15 07:09:21;;;;;;;;;;;;;;;17.42;51.65;99237.44;10330824;28;1962;-71
2023/11/15 07:14:17;;;;;;;;;;;;;;;17.44;51.71;99240.81;10330608;28;818;-71
2023/11/15 07:19:13;;;;;;;;;;;;;;;17.46;51.67;99238.97;10330649;28;865;-70
2023/11/15 07:24:09;;;;;;;;;;;;;;;17.45;51.56;99254.88;10330796;28;1558;-71
2023/11/15 07:29:08;;;;;;;;;;;;;;;17.40;51.90;99252.44;10328944;28;1941;-71
2023/11/15 07:34:08;;;;;;;;;;;;;;;17.37;51.96;99259.63;10329153;28;810;-74
2023/11/15 07:39:04;;;;;;;;;;;;;;;17.34;52.16;99270.31;10329883;28;1616;-71
2023/11/15 07:44:00;;;;;;;;;;;;;;;17.34;51.94;99275.59;10329523;28;901;-71
2023/11/15 07:48:58;;;;;;;;;;;;;;;17.35;52.07;99280.78;10329035;28;1906;-71
2023/11/15 07:53:53;;;;;;;;;;;;;;;17.36;51.87;99286.91;10327323;28;1100;-71
2023/11/15 07:58:50;;;;;;;;;;;;;;;17.38;51.91;99295.59;10326301;28;762;-70
2023/11/15 08:03:46;;;;;;;;;;;;;;;17.38;51.93;99296.44;10327916;28;884;-71
2023/11/15 08:08:42;;;;;;;;;;;;;;;17.39;52.02;99303.41;10326961;28;1894;-70
2023/11/15 08:13:38;;;;;;;;;;;;;;;17.43;51.83;99310.25;10327945;28;853;-70
2023/11/15 08:18:34;;;;;;;;;;;;;;;17.44;51.84;99321.63;10326645;28;893;-71
2023/11/15 08:23:30;;;;;;;;;;;;;;;17.47;51.67;99324.13;10326223;28;861;-70
2023/11/15 08:28:26;;;;;;;;;;;;;;;17.48;51.65;99323.22;10326063;28;1901;-70
2023/11/15 08:33:22;;;;;;;;;;;;;;;17.48;51.92;99331.97;10323393;28;1885;-69
2023/11/15 08:38:18;;;;;;;;;;;;;;;17.48;51.75;99339.88;10286793;28;795;-69
2023/11/15 08:43:14;;;;;;;;;;;;;;;17.48;51.78;99349.56;10285177;28;1307;-69
2023/11/15 08:48:11;;;;;;;;;;;;;;;17.44;51.82;99350.63;10285269;28;1906;-69
2023/11/15 08:53:10;;;;;;;;;;;;;;;17.49;51.69;99354.72;10285275;28;953;-71
2023/11/15 08:58:07;;;;;;;;;;;;;;;17.54;51.63;99359.78;10284679;28;859;-71
2023/11/15 09:03:04;;;;;;;;;;;;;;;17.50;51.81;99371.41;10285683;28;901;-72
2023/11/15 09:08:00;;;;;;;;;;;;;;;17.51;51.39;99373.97;10285336;28;1955;-70
2023/11/15 09:12:57;;;;;;;;;;;;;;;17.58;51.43;99371.91;10284433;28;906;-70
2023/11/15 09:17:53;;;;;;;;;;;;;;;17.56;51.64;99386.94;10284512;28;926;-71
2023/11/15 09:22:49;;;;;;;;;;;;;;;17.57;51.65;99400.94;10284608;28;898;-71
2023/11/15 09:27:44;;;;;;;;;;;;;;;17.62;51.52;99398.94;10284448;28;1071;-70
2023/11/15 09:32:40;;;;;;;;;;;;;;;17.61;51.74;99399.91;10284472;28;1894;-71
2023/11/15 09:37:36;;;;;;;;;;;;;;;17.59;51.81;99415.75;10289975;28;953;-70
2023/11/15 09:42:33;;;;;;;;;;;;;;;17.65;51.54;99412.81;10292460;28;925;-71
2023/11/15 09:47:29;;;;;;;;;;;;;;;17.66;51.65;99414.56;10292512;28;890;-71
2023/11/15 09:52:25;;;;;;;;;;;;;;;17.65;51.70;99423.38;10291912;28;1914;-71
2023/11/15 09:57:21;;;;;;;;;;;;;;;17.68;51.83;99428.53;10320982;28;1224;-70
2023/11/15 10:02:17;;;;;;;;;;;;;;;17.67;51.56;99421.53;10333735;28;952;-70
2023/11/15 10:07:13;;;;;;;;;;;;;;;17.65;51.75;99436.53;10332175;28;879;-70
2023/11/15 10:12:10;;;;;;;;;;;;;;;17.65;51.64;99440.97;10332096;28;1906;-70
2023/11/15 10:17:06;;;;;;;;;;;;;;;17.67;51.76;99445.25;10332145;28;782;-70
2023/11/15 10:22:02;;;;;;;;;;;;;;;17.66;51.58;99451.47;10331639;28;863;-70
2023/11/15 10:27:01;;;;;;;;;;;;;;;17.66;51.63;99454.09;10328624;28;1294;-71
2023/11/15 10:31:57;;;;;;;;;;;;;;;17.68;51.70;99468.06;10331432;28;1951;-71
2023/11/15 10:36:53;;;;;;;;;;;;;;;17.64;51.74;99453.31;10331341;28;826;-70
2023/11/15 10:41:51;;;;;;;;;;;;;;;17.64;51.77;99455.94;10331128;28;894;-70
2023/11/15 10:46:47;;;;;;;;;;;;;;;17.68;51.61;99454.00;10330878;28;866;-70
2023/11/15 10:51:48;;;;;;;;;;;;;;;17.70;51.54;99460.91;10330796;28;1910;-71
2023/11/15 10:56:44;;;;;;;;;;;;;;;17.72;51.44;99459.06;10330546;28;869;-71
2023/11/15 11:01:39;;;;;;;;;;;;;;;17.75;51.45;99458.06;10329818;28;983;-70
2023/11/15 11:06:35;;;;;;;;;;;;;;;17.77;51.36;99458.00;10330007;28;996;-71
2023/11/15 11:11:31;;;;;;;;;;;;;;;17.74;51.72;99456.38;10330223;28;1959;-71
2023/11/15 11:16:30;;;;;;;;;;;;;;;17.72;51.76;99445.88;10329953;28;771;-67
2023/11/15 11:21:26;;;;;;;;;;;;;;;17.68;51.74;99452.25;10329696;28;846;-67
2023/11/15 11:26:22;;;;;;;;;;;;;;;17.65;51.80;99451.50;10330143;28;814;-70
2023/11/15 11:31:18;;;;;;;;;;;;;;;17.67;51.70;99454.94;10329358;28;1894;-70
2023/11/15 11:36:14;;;;;;;;;;;;;;;17.68;51.70;99446.09;10329169;28;850;-71
2023/11/15 11:41:13;;;;;;;;;;;;;;;17.65;51.87;99443.59;10328937;28;899;-70
2023/11/15 11:46:09;;;;;;;;;;;;;;;17.75;51.27;99452.78;10328697;28;945;-72
2023/11/15 11:51:06;;;;;;;;;;;;;;;17.74;51.58;99451.94;10327847;28;1961;-71
2023/11/15 11:56:01;;;;;;;;;;;;;;;17.68;51.79;99449.59;10328254;28;909;-70
2023/11/15 12:00:57;;;;;;;;;;;;;;;17.75;51.60;99447.50;10326506;28;802;-71
2023/11/15 12:05:55;;;;;;;;;;;;;;;17.79;51.55;99438.59;10327967;28;931;-70
2023/11/15 12:10:51;;;;;;;;;;;;;;;17.80;51.40;99448.19;10328245;28;1897;-70
2023/11/15 12:15:47;;;;;;;;;;;;;;;17.82;51.56;99453.41;10327517;28;804;-70
2023/11/15 12:20:44;;;;;;;;;;;;;;;17.87;51.48;99444.34;10327322;28;873;-70
2023/11/15 12:25:39;;;;;;;;;;;;;;;17.90;51.11;99441.53;10328355;28;821;-70
2023/11/15 12:30:35;;;;;;;;;;;;;;;17.95;51.16;99446.59;10326730;28;1893;-70
2023/11/15 12:35:31;;;;;;;;;;;;;;;17.92;51.26;99455.50;10326815;28;885;-70
2023/11/15 12:40:27;;;;;;;;;;;;;;;17.98;51.12;99454.34;10326665;28;768;-70
2023/11/15 12:45:23;;;;;;;;;;;;;;;17.93;51.20;99456.34;10327165;28;893;-70
2023/11/15 12:50:21;;;;;;;;;;;;;;;18.02;50.88;99452.41;10326245;28;1965;-70
2023/11/15 12:55:16;;;;;;;;;;;;;;;17.99;51.11;99452.56;10326956;28;865;-70
2023/11/15 13:00:12;;;;;;;;;;;;;;;17.96;51.29;99458.84;10326646;28;863;-70
2023/11/15 13:05:08;;;;;;;;;;;;;;;18.05;51.07;99455.78;10325883;28;850;-70
2023/11/15 13:10:04;;;;;;;;;;;;;;;17.95;51.39;99454.50;10325323;28;1947;-70
2023/11/15 13:15:00;;;;;;;;;;;;;;;18.01;51.04;99448.94;10325678;28;821;-70
2023/11/15 13:19:57;;;;;;;;;;;;;;;17.97;51.01;99450.00;10326078;28;792;-70
2023/11/15 13:24:52;;;;;;;;;;;;;;;17.98;51.19;99456.16;10325957;28;806;-70
2023/11/15 13:29:50;;;;;;;;;;;;;;;18.25;50.34;99461.84;10325684;28;1953;-70
2023/11/15 13:34:50;;;;;;;;;;;;;;;18.09;50.74;99461.75;10325204;28;1044;-70
2023/11/15 13:39:46;;;;;;;;;;;;;;;18.09;50.62;99456.47;10325703;28;858;-70
2023/11/15 13:44:42;;;;;;;;;;;;;;;18.09;50.64;99459.94;10325615;28;807;-70
2023/11/15 13:49:38;;;;;;;;;;;;;;;18.06;50.81;99472.44;10324944;28;1898;-70
2023/11/15 13:54:34;;;;;;;;;;;;;;;18.03;51.04;99472.59;10324176;28;976;-70
2023/11/15 13:59:34;;;;;;;;;;;;;;;18.08;50.82;99489.91;10324169;28;775;-70
2023/11/15 14:04:30;;;;;;;;;;;;;;;18.08;50.81;99482.00;10324584;28;1008;-70
2023/11/15 14:09:28;;;;;;;;;;;;;;;18.06;50.74;99493.53;10325073;28;1886;-70
2023/11/15 14:14:25;;;;;;;;;;;;;;;18.08;50.75;99499.59;10324469;28;876;-70
2023/11/15 14:19:24;;;;;;;;;;;;;;;18.10;50.83;99495.09;10325419;28;850;-70
2023/11/15 14:24:20;;;;;;;;;;;;;;;18.06;51.10;99504.94;10329768;28;906;-70
2023/11/15 14:29:16;;;;;;;;;;;;;;;18.01;51.07;99501.66;10331581;28;1890;-70
2023/11/15 14:34:12;;;;;;;;;;;;;;;18.09;50.86;99507.44;10331607;28;794;-70
2023/11/15 14:39:09;;;;;;;;;;;;;;;18.08;50.79;99508.38;10331966;28;838;-70
2023/11/15 14:44:05;;;;;;;;;;;;;;;17.99;51.15;99514.06;10331217;28;865;-70
2023/11/15 14:49:01;;;;;;;;;;;;;;;17.99;51.01;99516.69;10331563;28;2025;-70
2023/11/15 14:53:58;;;;;;;;;;;;;;;18.01;50.93;99532.47;10330779;28;1577;-69
2023/11/15 14:58:54;;;;;;;;;;;;;;;17.97;51.17;99523.81;10330739;28;854;-70
2023/11/15 15:03:51;;;;;;;;;;;;;;;17.94;51.17;99532.75;10330292;28;865;-70
2023/11/15 15:08:47;;;;;;;;;;;;;;;17.89;51.49;99531.25;10330138;28;1885;-70
2023/11/15 15:13:43;;;;;;;;;;;;;;;17.90;51.19;99531.19;10330100;28;795;-69
2023/11/15 15:18:39;;;;;;;;;;;;;;;17.92;51.17;99529.34;10329351;28;1180;-70
2023/11/15 15:23:35;;;;;;;;;;;;;;;17.94;51.23;99521.34;10329728;28;866;-70
2023/11/15 15:28:31;;;;;;;;;;;;;;;17.94;51.29;99518.69;10329820;28;1955;-70
2023/11/15 15:33:28;;;;;;;;;;;;;;;17.91;51.34;99521.50;10329767;28;813;-67
2023/11/15 15:38:24;;;;;;;;;;;;;;;17.84;51.33;99534.13;10329141;28;861;-70
2023/11/15 15:43:19;;;;;;;;;;;;;;;17.80;50.96;99534.34;10328933;28;939;-71
2023/11/15 15:48:15;;;;;;;;;;;;;;;17.77;51.30;99543.22;10328676;28;1973;-71
2023/11/15 15:53:11;;;;;;;;;;;;;;;17.73;51.53;99545.09;10329235;28;838;-73
2023/11/15 15:58:07;;;;;;;;;;;;;;;17.73;51.37;99560.94;10328393;28;810;-71
2023/11/15 16:03:03;;;;;;;;;;;;;;;17.74;51.45;99562.66;10328281;28;770;-69
2023/11/15 16:07:59;;;;;;;;;;;;;;;17.77;51.62;99569.56;10328488;28;906;-71
2023/11/15 16:12:56;;;;;;;;;;;;;;;17.80;51.46;99573.88;10329210;28;1898;-70
2023/11/15 16:17:52;;;;;;;;;;;;;;;17.79;51.57;99585.31;10327482;28;984;-70
2023/11/15 16:22:48;;;;;;;;;;;;;;;17.82;51.33;99591.34;10327293;28;888;-70
2023/11/15 16:27:45;;;;;;;;;;;;;;;17.85;51.71;99591.19;10327207;28;774;-72
2023/11/15 16:32:41;;;;;;;;;;;;;;;17.86;51.49;99592.91;10327767;28;1902;-71
2023/11/15 16:37:36;;;;;;;;;;;;;;;17.91;51.55;99600.59;10327605;28;806;-71
2023/11/15 16:42:32;;;;;;;;;;;;;;;17.90;51.54;99602.38;10326555;28;778;-71
2023/11/15 16:47:28;;;;;;;;;;;;;;;17.91;51.47;99612.00;10326803;28;814;-71
2023/11/15 16:52:24;;;;;;;;;;;;;;;17.96;51.45;99611.78;10326202;28;1917;-70
2023/11/15 16:57:20;;;;;;;;;;;;;;;17.96;51.29;99619.69;10326173;28;794;-70
2023/11/15 17:02:17;;;;;;;;;;;;;;;17.94;51.30;99616.28;10326199;28;902;-71
2023/11/15 17:07:13;;;;;;;;;;;;;;;17.97;51.44;99621.41;10325886;28;830;-71
2023/11/15 17:12:09;;;;;;;;;;;;;;;17.96;51.13;99620.56;10326270;28;1950;-71
2023/11/15 17:17:05;;;;;;;;;;;;;;;17.96;51.28;99627.63;10325392;28;822;-71
2023/11/15 17:22:01;;;;;;;;;;;;;;;17.99;51.17;99632.75;10326014;28;1017;-71
2023/11/15 17:26:57;;;;;;;;;;;;;;;18.01;51.04;99638.81;10326296;28;826;-70
2023/11/15 17:31:53;;;;;;;;;;;;;;;17.97;51.28;99642.50;10325698;28;1962;-70
2023/11/15 17:36:49;;;;;;;;;;;;;;;18.00;51.22;99657.31;10325039;28;889;-70
2023/11/15 17:41:46;;;;;;;;;;;;;;;18.02;51.08;99653.69;10324875;28;798;-70
2023/11/15 17:46:42;;;;;;;;;;;;;;;17.99;51.34;99653.84;10325307;28;897;-71
2023/11/15 17:51:38;;;;;;;;;;;;;;;18.00;51.27;99658.22;10324558;28;1917;-70
2023/11/15 17:56:34;;;;;;;;;;;;;;;18.07;51.14;99656.13;10325426;28;898;-70
2023/11/15 18:01:30;;;;;;;;;;;;;;;18.06;51.31;99654.44;10332621;28;850;-70
2023/11/15 18:06:25;;;;;;;;;;;;;;;18.02;51.20;99656.34;10331851;28;893;-70
2023/11/15 18:11:22;;;;;;;;;;;;;;;18.07;51.08;99653.50;10331609;28;1960;-73
2023/11/15 18:16:18;;;;;;;;;;;;;;;18.07;51.16;99653.50;10332447;28;874;-71
2023/11/15 18:21:14;;;;;;;;;;;;;;;18.05;51.13;99653.56;10331978;28;803;-71
2023/11/15 18:26:09;;;;;;;;;;;;;;;18.08;51.01;99649.94;10332177;28;905;-70
2023/11/15 18:31:06;;;;;;;;;;;;;;;18.09;51.09;99654.28;10331131;28;1905;-70
2023/11/15 18:36:02;;;;;;;;;;;;;;;18.07;51.17;99653.50;10331507;28;834;-71
2023/11/15 18:40:58;;;;;;;;;;;;;;;18.09;51.15;99651.66;10331369;28;964;-71
2023/11/15 18:45:54;;;;;;;;;;;;;;;18.10;51.04;99646.31;10331376;28;797;-71
2023/11/15 18:50:50;;;;;;;;;;;;;;;18.08;51.02;99650.78;10330945;28;1922;-70
2023/11/15 18:55:46;;;;;;;;;;;;;;;18.11;50.79;99655.06;10330754;28;953;-70
2023/11/15 19:00:42;;;;;;;;;;;;;;;18.15;50.92;99646.94;10329963;28;1023;-71
2023/11/15 19:05:39;;;;;;;;;;;;;;;18.12;50.73;99646.22;10330472;28;780;-71
2023/11/15 19:10:35;;;;;;;;;;;;;;;18.09;51.07;99647.22;10330210;28;2026;-70
2023/11/15 19:15:31;;;;;;;;;;;;;;;18.13;50.98;99634.72;10330792;28;866;-71
2023/11/15 19:20:28;;;;;;;;;;;;;;;18.15;50.65;99636.38;10329854;28;917;-71
2023/11/15 19:25:25;;;;;;;;;;;;;;;18.12;50.93;99638.31;10329723;28;873;-71
2023/11/15 19:30:23;;;;;;;;;;;;;;;18.11;50.75;99637.47;10328795;28;1961;-71
2023/11/15 19:35:19;;;;;;;;;;;;;;;18.14;50.70;99637.31;10329546;28;913;-70
2023/11/15 19:40:15;;;;;;;;;;;;;;;18.12;50.76;99644.44;10329191;28;845;-70
2023/11/15 19:45:11;;;;;;;;;;;;;;;18.12;50.70;99641.81;10328922;28;892;-70
2023/11/15 19:50:07;;;;;;;;;;;;;;;18.14;50.69;99644.38;10328579;28;1967;-71
2023/11/15 19:55:07;;;;;;;;;;;;;;;18.12;50.64;99636.53;10329446;28;814;-71
2023/11/15 20:00:03;;;;;;;;;;;;;;;18.14;50.56;99655.78;10328919;28;834;-70
2023/11/15 20:04:59;;;;;;;;;;;;;;;18.16;50.51;99639.91;10328710;28;860;-71
2023/11/15 20:09:55;;;;;;;;;;;;;;;18.15;50.60;99641.66;10327438;28;1895;-70
2023/11/15 20:14:51;;;;;;;;;;;;;;;18.11;50.62;99644.53;10328289;28;898;-71
2023/11/15 20:19:47;;;;;;;;;;;;;;;18.14;50.61;99637.31;10327308;28;834;-71
2023/11/15 20:24:42;;;;;;;;;;;;;;;18.15;50.52;99646.06;10327915;28;846;-70
2023/11/15 20:29:39;;;;;;;;;;;;;;;18.14;50.60;99634.69;10326534;28;1957;-70
2023/11/15 20:34:35;;;;;;;;;;;;;;;18.12;50.64;99641.81;10326912;28;1064;-70
2023/11/15 20:39:31;;;;;;;;;;;;;;;18.13;50.57;99638.25;10327369;28;782;-70
2023/11/15 20:44:27;;;;;;;;;;;;;;;18.12;50.49;99630.41;10326757;28;850;-71
2023/11/15 20:49:23;;;;;;;;;;;;;;;18.09;50.49;99627.91;10326153;28;1969;-71
2023/11/15 20:54:24;;;;;;;;;;;;;;;18.07;50.55;99632.38;10326185;28;779;-71
2023/11/15 20:59:20;;;;;;;;;;;;;;;18.03;50.68;99641.38;10326389;28;1712;-71
2023/11/15 21:04:24;;;;;;;;;;;;;;;18.01;50.53;99637.97;10325761;28;1005;-71
2023/11/15 21:09:20;;;;;;;;;;;;;;;18.01;50.53;99643.22;10325916;28;1902;-71
2023/11/15 21:14:16;;;;;;;;;;;;;;;17.97;50.40;99631.94;10325592;28;848;-71
2023/11/15 21:19:12;;;;;;;;;;;;;;;17.95;50.46;99639.94;10325092;28;933;-71
2023/11/15 21:24:08;;;;;;;;;;;;;;;17.97;50.37;99637.22;10325443;28;879;-71
2023/11/15 21:29:08;;;;;;;;;;;;;;;17.98;50.15;99633.69;10325717;28;1964;-70
2023/11/15 21:34:07;;;;;;;;;;;;;;;17.97;50.19;99637.22;10325144;28;873;-71
2023/11/15 21:39:03;;;;;;;;;;;;;;;17.93;50.32;99631.25;10325785;28;892;-70
2023/11/15 21:44:01;;;;;;;;;;;;;;;17.93;50.07;99630.41;10325044;28;814;-71
2023/11/15 21:48:59;;;;;;;;;;;;;;;17.92;50.29;99616.38;10324902;28;1914;-70
2023/11/15 21:53:56;;;;;;;;;;;;;;;17.92;50.42;99612.84;10324894;28;985;-70
2023/11/15 21:58:52;;;;;;;;;;;;;;;17.92;50.19;99612.84;10324905;28;822;-70
2023/11/15 22:03:48;;;;;;;;;;;;;;;17.87;50.41;99605.16;10325670;28;861;-70
2023/11/15 22:08:44;;;;;;;;;;;;;;;17.85;50.24;99608.81;10324566;28;2034;-70
2023/11/15 22:13:40;;;;;;;;;;;;;;;17.80;50.44;99610.78;10324935;28;882;-70
2023/11/15 22:18:35;;;;;;;;;;;;;;;17.77;50.34;99614.38;10325819;28;845;-70
2023/11/15 22:23:31;;;;;;;;;;;;;;;17.77;49.93;99610.91;10324813;28;920;-70
2023/11/15 22:28:28;;;;;;;;;;;;;;;17.70;50.22;99616.44;10323588;28;1966;-70
2023/11/15 22:33:24;;;;;;;;;;;;;;;17.68;50.07;99614.78;10242314;28;1501;-70
2023/11/15 22:38:20;;;;;;;;;;;;;;;17.61;50.05;99614.22;10242222;28;851;-70
2023/11/15 22:43:16;;;;;;;;;;;;;;;17.58;50.23;99614.38;10244964;28;775;-71
2023/11/15 22:48:11;;;;;;;;;;;;;;;17.56;50.10;99613.56;10250591;28;847;-70
2023/11/15 22:53:07;;;;;;;;;;;;;;;17.51;50.29;99612.91;10249587;28;1902;-70
2023/11/15 22:58:03;;;;;;;;;;;;;;;17.48;50.46;99621.81;10250308;28;834;-70
2023/11/15 23:02:59;;;;;;;;;;;;;;;17.44;50.71;99619.38;10249786;28;860;-70
2023/11/15 23:07:55;;;;;;;;;;;;;;;17.37;50.94;99625.81;10249098;28;881;-70
2023/11/15 23:12:51;;;;;;;;;;;;;;;17.31;50.79;99627.78;10248835;28;1945;-70
2023/11/15 23:17:47;;;;;;;;;;;;;;;17.28;50.86;99621.81;10248708;28;822;-70
2023/11/15 23:22:43;;;;;;;;;;;;;;;17.26;50.96;99623.66;10248577;28;878;-70
2023/11/15 23:27:39;;;;;;;;;;;;;;;17.24;50.93;99621.09;10248984;28;906;-70
2023/11/15 23:32:35;;;;;;;;;;;;;;;17.19;50.54;99620.44;10315297;28;1898;-70
2023/11/15 23:37:31;;;;;;;;;;;;;;;17.17;50.87;99614.38;10329305;28;802;-70
2023/11/15 23:42:28;;;;;;;;;;;;;;;17.13;50.63;99612.78;10329110;28;861;-70
2023/11/15 23:47:24;;;;;;;;;;;;;;;17.12;51.03;99608.44;10329030;28;925;-70
2023/11/15 23:52:21;;;;;;;;;;;;;;;17.09;50.82;99619.97;10328645;28;1910;-70
2023/11/15 23:57:18;;;;;;;;;;;;;;;17.04;50.93;99614.03;10329009;28;837;-70
